sensor_id;sensor_type;location;lat;lon;timestamp;P1;durP1;ratioP1;P2;durP2;ratioP2
11893;SDS011;6006;49.696;8.662;2022-08-14T00:00:41;4.30;;;3.88;;
11893;SDS011;6006;49.696;8.662;2022-08-14T00:03:16;3.90;;;3.53;;
11893;SDS011;6006;49.696;8.662;2022-08-14T00:05:43;4.05;;;3.65;;
11893;SDS011;6006;49.696;8.662;2022-08-14T00:08:11;4.18;;;3.88;;
11893;SDS011;6006;49.696;8.662;2022-08-14T00:10:39;3.92;;;3.63;;
11893;SDS011;6006;49.696;8.662;2022-08-14T00:13:06;4.60;;;4.10;;
11893;SDS011;6006;49.696;8.662;2022-08-14T00:15:35;3.95;;;3.65;;
11893;SDS011;6006;49.696;8.662;2022-08-14T00:18:05;8.88;;;4.40;;
11893;SDS011;6006;49.696;8.662;2022-08-14T00:20:34;6.30;;;4.50;;
11893;SDS011;6006;49.696;8.662;2022-08-14T00:23:03;4.70;;;4.38;;
11893;SDS011;6006;49.696;8.662;2022-08-14T00:25:30;4.57;;;4.18;;
11893;SDS011;6006;49.696;8.662;2022-08-14T00:27:59;4.20;;;3.80;;
11893;SDS011;6006;49.696;8.662;2022-08-14T00:30:26;4.45;;;4.15;;
11893;SDS011;6006;49.696;8.662;2022-08-14T00:32:54;5.20;;;4.22;;
11893;SDS011;6006;49.696;8.662;2022-08-14T00:35:21;5.22;;;4.38;;
11893;SDS011;6006;49.696;8.662;2022-08-14T00:37:47;5.32;;;4.45;;
11893;SDS011;6006;49.696;8.662;2022-08-14T00:40:16;5.00;;;4.60;;
11893;SDS011;6006;49.696;8.662;2022-08-14T00:42:44;4.85;;;4.55;;
11893;SDS011;6006;49.696;8.662;2022-08-14T00:45:13;6.15;;;4.68;;
11893;SDS011;6006;49.696;8.662;2022-08-14T00:47:42;4.75;;;4.35;;
11893;SDS011;6006;49.696;8.662;2022-08-14T00:50:10;4.55;;;4.03;;
11893;SDS011;6006;49.696;8.662;2022-08-14T00:52:42;4.93;;;4.53;;
11893;SDS011;6006;49.696;8.662;2022-08-14T00:55:09;4.97;;;4.55;;
11893;SDS011;6006;49.696;8.662;2022-08-14T00:57:36;4.65;;;4.35;;
11893;SDS011;6006;49.696;8.662;2022-08-14T01:00:04;4.93;;;4.53;;
11893;SDS011;6006;49.696;8.662;2022-08-14T01:02:38;4.72;;;4.43;;
11893;SDS011;6006;49.696;8.662;2022-08-14T01:05:07;4.90;;;4.50;;
11893;SDS011;6006;49.696;8.662;2022-08-14T01:07:47;5.00;;;4.50;;
11893;SDS011;6006;49.696;8.662;2022-08-14T01:10:16;4.82;;;4.50;;
11893;SDS011;6006;49.696;8.662;2022-08-14T01:12:44;4.53;;;4.22;;
11893;SDS011;6006;49.696;8.662;2022-08-14T01:15:13;4.75;;;4.35;;
11893;SDS011;6006;49.696;8.662;2022-08-14T01:17:46;6.25;;;5.00;;
11893;SDS011;6006;49.696;8.662;2022-08-14T01:20:30;4.85;;;4.45;;
11893;SDS011;6006;49.696;8.662;2022-08-14T01:23:32;5.18;;;4.78;;
11893;SDS011;6006;49.696;8.662;2022-08-14T01:26:04;4.80;;;4.40;;
11893;SDS011;6006;49.696;8.662;2022-08-14T01:28:32;4.75;;;4.35;;
11893;SDS011;6006;49.696;8.662;2022-08-14T01:31:02;4.50;;;4.20;;
11893;SDS011;6006;49.696;8.662;2022-08-14T01:33:33;5.13;;;4.72;;
11893;SDS011;6006;49.696;8.662;2022-08-14T01:36:06;5.60;;;5.10;;
11893;SDS011;6006;49.696;8.662;2022-08-14T01:38:37;5.20;;;4.80;;
11893;SDS011;6006;49.696;8.662;2022-08-14T01:41:07;4.68;;;4.28;;
11893;SDS011;6006;49.696;8.662;2022-08-14T01:43:41;5.15;;;4.78;;
11893;SDS011;6006;49.696;8.662;2022-08-14T01:46:10;5.65;;;5.20;;
11893;SDS011;6006;49.696;8.662;2022-08-14T01:48:37;4.90;;;4.60;;
11893;SDS011;6006;49.696;8.662;2022-08-14T01:51:08;5.35;;;4.95;;
11893;SDS011;6006;49.696;8.662;2022-08-14T01:53:39;5.40;;;5.00;;
11893;SDS011;6006;49.696;8.662;2022-08-14T01:56:07;5.30;;;4.90;;
11893;SDS011;6006;49.696;8.662;2022-08-14T01:58:34;5.57;;;5.07;;
11893;SDS011;6006;49.696;8.662;2022-08-14T02:01:02;5.70;;;5.20;;
11893;SDS011;6006;49.696;8.662;2022-08-14T02:03:31;5.68;;;5.00;;
11893;SDS011;6006;49.696;8.662;2022-08-14T02:06:04;5.65;;;5.05;;
11893;SDS011;6006;49.696;8.662;2022-08-14T02:08:32;5.38;;;4.95;;
11893;SDS011;6006;49.696;8.662;2022-08-14T02:11:03;5.93;;;5.32;;
11893;SDS011;6006;49.696;8.662;2022-08-14T02:13:47;6.22;;;5.63;;
11893;SDS011;6006;49.696;8.662;2022-08-14T02:16:17;5.95;;;4.75;;
11893;SDS011;6006;49.696;8.662;2022-08-14T02:18:44;5.68;;;5.18;;
11893;SDS011;6006;49.696;8.662;2022-08-14T02:21:13;5.80;;;5.30;;
11893;SDS011;6006;49.696;8.662;2022-08-14T02:23:42;5.38;;;4.97;;
11893;SDS011;6006;49.696;8.662;2022-08-14T02:26:15;5.40;;;4.90;;
11893;SDS011;6006;49.696;8.662;2022-08-14T02:28:45;5.30;;;4.90;;
11893;SDS011;6006;49.696;8.662;2022-08-14T02:31:13;5.25;;;4.75;;
11893;SDS011;6006;49.696;8.662;2022-08-14T02:33:41;6.57;;;5.40;;
11893;SDS011;6006;49.696;8.662;2022-08-14T02:36:08;5.25;;;4.88;;
11893;SDS011;6006;49.696;8.662;2022-08-14T02:38:37;5.50;;;5.10;;
11893;SDS011;6006;49.696;8.662;2022-08-14T02:41:06;5.78;;;5.28;;
11893;SDS011;6006;49.696;8.662;2022-08-14T02:43:36;5.75;;;5.35;;
11893;SDS011;6006;49.696;8.662;2022-08-14T02:46:04;5.38;;;4.88;;
11893;SDS011;6006;49.696;8.662;2022-08-14T02:48:34;4.85;;;4.50;;
11893;SDS011;6006;49.696;8.662;2022-08-14T02:51:03;7.45;;;5.78;;
11893;SDS011;6006;49.696;8.662;2022-08-14T02:53:32;5.22;;;4.82;;
11893;SDS011;6006;49.696;8.662;2022-08-14T02:55:59;5.75;;;5.25;;
11893;SDS011;6006;49.696;8.662;2022-08-14T02:58:28;5.05;;;4.65;;
11893;SDS011;6006;49.696;8.662;2022-08-14T03:00:57;6.10;;;5.43;;
11893;SDS011;6006;49.696;8.662;2022-08-14T03:03:24;5.82;;;5.32;;
11893;SDS011;6006;49.696;8.662;2022-08-14T03:05:51;6.40;;;5.53;;
11893;SDS011;6006;49.696;8.662;2022-08-14T03:08:18;5.72;;;5.22;;
11893;SDS011;6006;49.696;8.662;2022-08-14T03:10:46;5.40;;;5.00;;
11893;SDS011;6006;49.696;8.662;2022-08-14T03:13:13;5.45;;;5.05;;
11893;SDS011;6006;49.696;8.662;2022-08-14T03:15:40;6.03;;;5.53;;
11893;SDS011;6006;49.696;8.662;2022-08-14T03:18:12;5.95;;;5.35;;
11893;SDS011;6006;49.696;8.662;2022-08-14T03:20:39;6.05;;;5.55;;
11893;SDS011;6006;49.696;8.662;2022-08-14T03:23:06;5.80;;;5.30;;
11893;SDS011;6006;49.696;8.662;2022-08-14T03:25:33;6.10;;;5.53;;
11893;SDS011;6006;49.696;8.662;2022-08-14T03:28:02;5.82;;;5.32;;
11893;SDS011;6006;49.696;8.662;2022-08-14T03:30:31;5.65;;;5.22;;
11893;SDS011;6006;49.696;8.662;2022-08-14T03:32:59;6.10;;;5.60;;
11893;SDS011;6006;49.696;8.662;2022-08-14T03:35:28;6.28;;;5.72;;
11893;SDS011;6006;49.696;8.662;2022-08-14T03:38:03;6.05;;;5.55;;
11893;SDS011;6006;49.696;8.662;2022-08-14T03:40:33;6.32;;;5.85;;
11893;SDS011;6006;49.696;8.662;2022-08-14T03:43:02;5.93;;;5.40;;
11893;SDS011;6006;49.696;8.662;2022-08-14T03:45:30;6.25;;;5.75;;
11893;SDS011;6006;49.696;8.662;2022-08-14T03:47:57;6.43;;;5.70;;
11893;SDS011;6006;49.696;8.662;2022-08-14T03:50:25;6.90;;;6.05;;
11893;SDS011;6006;49.696;8.662;2022-08-14T03:52:53;6.18;;;5.57;;
11893;SDS011;6006;49.696;8.662;2022-08-14T03:55:20;6.38;;;5.75;;
11893;SDS011;6006;49.696;8.662;2022-08-14T03:57:47;5.90;;;5.40;;
11893;SDS011;6006;49.696;8.662;2022-08-14T04:00:14;6.78;;;6.28;;
11893;SDS011;6006;49.696;8.662;2022-08-14T04:02:41;6.35;;;5.75;;
11893;SDS011;6006;49.696;8.662;2022-08-14T04:05:09;5.93;;;5.32;;
11893;SDS011;6006;49.696;8.662;2022-08-14T04:07:36;6.10;;;5.60;;
11893;SDS011;6006;49.696;8.662;2022-08-14T04:10:06;6.78;;;5.80;;
11893;SDS011;6006;49.696;8.662;2022-08-14T04:12:34;6.05;;;5.57;;
11893;SDS011;6006;49.696;8.662;2022-08-14T04:15:01;8.05;;;6.07;;
11893;SDS011;6006;49.696;8.662;2022-08-14T04:17:29;7.28;;;6.60;;
11893;SDS011;6006;49.696;8.662;2022-08-14T04:19:56;6.10;;;5.60;;
11893;SDS011;6006;49.696;8.662;2022-08-14T04:22:30;6.10;;;5.60;;
11893;SDS011;6006;49.696;8.662;2022-08-14T04:24:58;6.40;;;5.80;;
11893;SDS011;6006;49.696;8.662;2022-08-14T04:27:26;6.63;;;6.13;;
11893;SDS011;6006;49.696;8.662;2022-08-14T04:29:54;6.25;;;5.75;;
11893;SDS011;6006;49.696;8.662;2022-08-14T04:32:22;6.53;;;5.93;;
11893;SDS011;6006;49.696;8.662;2022-08-14T04:34:51;6.15;;;5.65;;
11893;SDS011;6006;49.696;8.662;2022-08-14T04:37:20;6.95;;;5.85;;
11893;SDS011;6006;49.696;8.662;2022-08-14T04:40:05;6.78;;;6.10;;
11893;SDS011;6006;49.696;8.662;2022-08-14T04:42:52;7.63;;;6.37;;
11893;SDS011;6006;49.696;8.662;2022-08-14T04:45:37;6.50;;;5.90;;
11893;SDS011;6006;49.696;8.662;2022-08-14T04:48:06;6.40;;;5.90;;
11893;SDS011;6006;49.696;8.662;2022-08-14T04:50:39;6.73;;;6.13;;
11893;SDS011;6006;49.696;8.662;2022-08-14T04:53:07;6.93;;;6.33;;
11893;SDS011;6006;49.696;8.662;2022-08-14T04:55:37;6.40;;;5.78;;
11893;SDS011;6006;49.696;8.662;2022-08-14T04:58:05;6.90;;;6.20;;
11893;SDS011;6006;49.696;8.662;2022-08-14T05:00:33;7.80;;;6.47;;
11893;SDS011;6006;49.696;8.662;2022-08-14T05:03:00;8.73;;;6.77;;
11893;SDS011;6006;49.696;8.662;2022-08-14T05:05:28;6.27;;;5.73;;
11893;SDS011;6006;49.696;8.662;2022-08-14T05:07:55;6.77;;;6.17;;
11893;SDS011;6006;49.696;8.662;2022-08-14T05:10:30;9.80;;;6.53;;
11893;SDS011;6006;49.696;8.662;2022-08-14T05:12:57;9.23;;;6.72;;
11893;SDS011;6006;49.696;8.662;2022-08-14T05:15:25;10.33;;;6.57;;
11893;SDS011;6006;49.696;8.662;2022-08-14T05:17:53;11.80;;;6.72;;
11893;SDS011;6006;49.696;8.662;2022-08-14T05:20:20;7.45;;;6.10;;
11893;SDS011;6006;49.696;8.662;2022-08-14T05:22:48;7.13;;;6.43;;
11893;SDS011;6006;49.696;8.662;2022-08-14T05:25:15;7.97;;;5.95;;
11893;SDS011;6006;49.696;8.662;2022-08-14T05:27:43;7.30;;;6.70;;
11893;SDS011;6006;49.696;8.662;2022-08-14T05:30:10;8.65;;;6.00;;
11893;SDS011;6006;49.696;8.662;2022-08-14T05:32:41;9.95;;;6.55;;
11893;SDS011;6006;49.696;8.662;2022-08-14T05:35:08;7.40;;;6.10;;
11893;SDS011;6006;49.696;8.662;2022-08-14T05:37:35;6.97;;;6.28;;
11893;SDS011;6006;49.696;8.662;2022-08-14T05:40:04;7.28;;;6.63;;
11893;SDS011;6006;49.696;8.662;2022-08-14T05:42:33;7.18;;;6.38;;
11893;SDS011;6006;49.696;8.662;2022-08-14T05:45:02;6.95;;;6.30;;
11893;SDS011;6006;49.696;8.662;2022-08-14T05:47:31;7.40;;;6.65;;
11893;SDS011;6006;49.696;8.662;2022-08-14T05:50:00;7.18;;;6.57;;
11893;SDS011;6006;49.696;8.662;2022-08-14T05:52:26;6.95;;;6.35;;
11893;SDS011;6006;49.696;8.662;2022-08-14T05:54:54;6.70;;;6.10;;
11893;SDS011;6006;49.696;8.662;2022-08-14T05:57:22;6.80;;;6.22;;
11893;SDS011;6006;49.696;8.662;2022-08-14T05:59:49;6.38;;;5.70;;
11893;SDS011;6006;49.696;8.662;2022-08-14T06:02:15;6.38;;;5.72;;
11893;SDS011;6006;49.696;8.662;2022-08-14T06:04:42;6.13;;;5.70;;
11893;SDS011;6006;49.696;8.662;2022-08-14T06:07:13;6.28;;;5.68;;
11893;SDS011;6006;49.696;8.662;2022-08-14T06:09:40;6.50;;;5.72;;
11893;SDS011;6006;49.696;8.662;2022-08-14T06:12:07;5.53;;;5.07;;
11893;SDS011;6006;49.696;8.662;2022-08-14T06:14:34;6.80;;;5.60;;
11893;SDS011;6006;49.696;8.662;2022-08-14T06:17:01;6.30;;;5.82;;
11893;SDS011;6006;49.696;8.662;2022-08-14T06:19:29;5.88;;;5.30;;
11893;SDS011;6006;49.696;8.662;2022-08-14T06:21:56;5.40;;;4.95;;
11893;SDS011;6006;49.696;8.662;2022-08-14T06:24:24;6.70;;;6.00;;
11893;SDS011;6006;49.696;8.662;2022-08-14T06:26:51;5.97;;;5.57;;
11893;SDS011;6006;49.696;8.662;2022-08-14T06:29:18;7.63;;;5.60;;
11893;SDS011;6006;49.696;8.662;2022-08-14T06:31:45;11.27;;;6.03;;
11893;SDS011;6006;49.696;8.662;2022-08-14T06:34:12;6.75;;;6.00;;
11893;SDS011;6006;49.696;8.662;2022-08-14T06:36:42;7.43;;;5.75;;
11893;SDS011;6006;49.696;8.662;2022-08-14T06:39:09;6.50;;;5.70;;
11893;SDS011;6006;49.696;8.662;2022-08-14T06:41:38;8.98;;;5.57;;
11893;SDS011;6006;49.696;8.662;2022-08-14T06:44:06;6.18;;;5.68;;
11893;SDS011;6006;49.696;8.662;2022-08-14T06:46:33;6.80;;;5.70;;
11893;SDS011;6006;49.696;8.662;2022-08-14T06:49:00;6.10;;;5.50;;
11893;SDS011;6006;49.696;8.662;2022-08-14T06:51:26;6.55;;;5.95;;
11893;SDS011;6006;49.696;8.662;2022-08-14T06:53:53;6.57;;;6.07;;
11893;SDS011;6006;49.696;8.662;2022-08-14T06:56:21;12.68;;;5.85;;
11893;SDS011;6006;49.696;8.662;2022-08-14T06:58:50;6.28;;;5.72;;
11893;SDS011;6006;49.696;8.662;2022-08-14T07:01:16;5.95;;;5.55;;
11893;SDS011;6006;49.696;8.662;2022-08-14T07:04:01;5.82;;;5.30;;
11893;SDS011;6006;49.696;8.662;2022-08-14T07:06:46;5.38;;;4.85;;
11893;SDS011;6006;49.696;8.662;2022-08-14T07:09:13;6.50;;;5.65;;
11893;SDS011;6006;49.696;8.662;2022-08-14T07:11:40;18.88;;;6.10;;
11893;SDS011;6006;49.696;8.662;2022-08-14T07:14:08;11.38;;;6.00;;
11893;SDS011;6006;49.696;8.662;2022-08-14T07:16:35;5.80;;;5.30;;
11893;SDS011;6006;49.696;8.662;2022-08-14T07:19:02;6.10;;;5.60;;
11893;SDS011;6006;49.696;8.662;2022-08-14T07:21:30;6.28;;;5.68;;
11893;SDS011;6006;49.696;8.662;2022-08-14T07:23:56;12.68;;;5.05;;
11893;SDS011;6006;49.696;8.662;2022-08-14T07:26:23;6.45;;;5.43;;
11893;SDS011;6006;49.696;8.662;2022-08-14T07:28:50;6.55;;;5.95;;
11893;SDS011;6006;49.696;8.662;2022-08-14T07:31:18;33.03;;;7.38;;
11893;SDS011;6006;49.696;8.662;2022-08-14T07:33:46;6.75;;;6.20;;
11893;SDS011;6006;49.696;8.662;2022-08-14T07:36:14;15.30;;;5.72;;
11893;SDS011;6006;49.696;8.662;2022-08-14T07:38:42;5.40;;;5.00;;
11893;SDS011;6006;49.696;8.662;2022-08-14T07:41:09;20.00;;;6.18;;
11893;SDS011;6006;49.696;8.662;2022-08-14T07:43:37;5.78;;;5.38;;
11893;SDS011;6006;49.696;8.662;2022-08-14T07:46:05;10.80;;;6.07;;
11893;SDS011;6006;49.696;8.662;2022-08-14T07:48:37;8.75;;;5.35;;
11893;SDS011;6006;49.696;8.662;2022-08-14T07:51:07;5.35;;;4.95;;
11893;SDS011;6006;49.696;8.662;2022-08-14T07:53:34;5.47;;;5.07;;
11893;SDS011;6006;49.696;8.662;2022-08-14T07:56:01;4.78;;;4.47;;
11893;SDS011;6006;49.696;8.662;2022-08-14T07:58:29;5.57;;;5.10;;
11893;SDS011;6006;49.696;8.662;2022-08-14T08:00:56;5.88;;;5.32;;
11893;SDS011;6006;49.696;8.662;2022-08-14T08:03:23;5.93;;;5.43;;
11893;SDS011;6006;49.696;8.662;2022-08-14T08:05:53;5.55;;;5.15;;
11893;SDS011;6006;49.696;8.662;2022-08-14T08:08:20;5.72;;;5.00;;
11893;SDS011;6006;49.696;8.662;2022-08-14T08:10:48;5.57;;;4.80;;
11893;SDS011;6006;49.696;8.662;2022-08-14T08:13:16;4.38;;;4.07;;
11893;SDS011;6006;49.696;8.662;2022-08-14T08:15:46;5.20;;;4.80;;
11893;SDS011;6006;49.696;8.662;2022-08-14T08:18:15;5.05;;;4.75;;
11893;SDS011;6006;49.696;8.662;2022-08-14T08:20:43;6.60;;;4.68;;
11893;SDS011;6006;49.696;8.662;2022-08-14T08:23:13;4.32;;;3.97;;
11893;SDS011;6006;49.696;8.662;2022-08-14T08:25:42;5.18;;;4.68;;
11893;SDS011;6006;49.696;8.662;2022-08-14T08:28:12;4.97;;;4.57;;
11893;SDS011;6006;49.696;8.662;2022-08-14T08:30:41;4.60;;;4.30;;
11893;SDS011;6006;49.696;8.662;2022-08-14T08:33:09;4.13;;;3.92;;
11893;SDS011;6006;49.696;8.662;2022-08-14T08:35:36;5.03;;;4.63;;
11893;SDS011;6006;49.696;8.662;2022-08-14T08:38:04;4.82;;;4.53;;
11893;SDS011;6006;49.696;8.662;2022-08-14T08:40:35;4.55;;;4.25;;
11893;SDS011;6006;49.696;8.662;2022-08-14T08:43:06;4.40;;;4.00;;
11893;SDS011;6006;49.696;8.662;2022-08-14T08:45:35;4.70;;;4.40;;
11893;SDS011;6006;49.696;8.662;2022-08-14T08:48:02;5.85;;;4.43;;
11893;SDS011;6006;49.696;8.662;2022-08-14T08:50:30;9.10;;;4.78;;
11893;SDS011;6006;49.696;8.662;2022-08-14T08:53:00;8.80;;;4.53;;
11893;SDS011;6006;49.696;8.662;2022-08-14T08:55:30;6.95;;;4.68;;
11893;SDS011;6006;49.696;8.662;2022-08-14T08:58:01;4.68;;;4.28;;
11893;SDS011;6006;49.696;8.662;2022-08-14T09:00:30;4.70;;;4.40;;
11893;SDS011;6006;49.696;8.662;2022-08-14T09:03:00;5.05;;;4.65;;
11893;SDS011;6006;49.696;8.662;2022-08-14T09:05:30;4.40;;;4.10;;
11893;SDS011;6006;49.696;8.662;2022-08-14T09:08:07;4.75;;;4.45;;
11893;SDS011;6006;49.696;8.662;2022-08-14T09:10:36;4.55;;;4.15;;
11893;SDS011;6006;49.696;8.662;2022-08-14T09:13:04;3.92;;;3.72;;
11893;SDS011;6006;49.696;8.662;2022-08-14T09:15:31;4.35;;;4.05;;
11893;SDS011;6006;49.696;8.662;2022-08-14T09:17:58;4.22;;;3.97;;
11893;SDS011;6006;49.696;8.662;2022-08-14T09:20:26;3.65;;;3.35;;
11893;SDS011;6006;49.696;8.662;2022-08-14T09:22:53;4.13;;;3.47;;
11893;SDS011;6006;49.696;8.662;2022-08-14T09:25:20;3.92;;;3.72;;
11893;SDS011;6006;49.696;8.662;2022-08-14T09:27:47;3.97;;;3.70;;
11893;SDS011;6006;49.696;8.662;2022-08-14T09:30:15;3.88;;;3.67;;
11893;SDS011;6006;49.696;8.662;2022-08-14T09:32:45;4.55;;;3.42;;
11893;SDS011;6006;49.696;8.662;2022-08-14T09:35:28;4.13;;;3.80;;
11893;SDS011;6006;49.696;8.662;2022-08-14T09:38:03;4.00;;;3.80;;
11893;SDS011;6006;49.696;8.662;2022-08-14T09:40:37;3.83;;;3.53;;
11893;SDS011;6006;49.696;8.662;2022-08-14T09:43:14;3.45;;;3.25;;
11893;SDS011;6006;49.696;8.662;2022-08-14T09:45:52;3.75;;;3.45;;
11893;SDS011;6006;49.696;8.662;2022-08-14T09:48:23;3.47;;;3.17;;
11893;SDS011;6006;49.696;8.662;2022-08-14T09:50:51;3.10;;;2.90;;
11893;SDS011;6006;49.696;8.662;2022-08-14T09:53:31;3.13;;;2.92;;
11893;SDS011;6006;49.696;8.662;2022-08-14T09:56:01;3.60;;;3.40;;
11893;SDS011;6006;49.696;8.662;2022-08-14T09:58:34;3.17;;;2.97;;
11893;SDS011;6006;49.696;8.662;2022-08-14T10:01:08;3.08;;;2.88;;
11893;SDS011;6006;49.696;8.662;2022-08-14T10:03:37;3.00;;;2.83;;
11893;SDS011;6006;49.696;8.662;2022-08-14T10:06:13;3.10;;;2.90;;
11893;SDS011;6006;49.696;8.662;2022-08-14T10:08:43;2.83;;;2.63;;
11893;SDS011;6006;49.696;8.662;2022-08-14T10:11:12;2.70;;;2.60;;
11893;SDS011;6006;49.696;8.662;2022-08-14T10:13:42;2.58;;;2.47;;
11893;SDS011;6006;49.696;8.662;2022-08-14T10:16:10;2.97;;;2.88;;
11893;SDS011;6006;49.696;8.662;2022-08-14T10:18:39;2.90;;;2.50;;
11893;SDS011;6006;49.696;8.662;2022-08-14T10:21:07;2.75;;;2.55;;
11893;SDS011;6006;49.696;8.662;2022-08-14T10:23:38;2.72;;;2.63;;
11893;SDS011;6006;49.696;8.662;2022-08-14T10:26:07;2.92;;;2.72;;
11893;SDS011;6006;49.696;8.662;2022-08-14T10:28:38;2.83;;;2.63;;
11893;SDS011;6006;49.696;8.662;2022-08-14T10:31:16;2.70;;;2.60;;
11893;SDS011;6006;49.696;8.662;2022-08-14T10:33:44;3.95;;;2.47;;
11893;SDS011;6006;49.696;8.662;2022-08-14T10:36:27;2.47;;;2.33;;
11893;SDS011;6006;49.696;8.662;2022-08-14T10:38:57;2.63;;;2.42;;
11893;SDS011;6006;49.696;8.662;2022-08-14T10:41:39;3.60;;;3.33;;
11893;SDS011;6006;49.696;8.662;2022-08-14T10:44:09;2.75;;;2.60;;
11893;SDS011;6006;49.696;8.662;2022-08-14T10:46:44;3.05;;;2.78;;
11893;SDS011;6006;49.696;8.662;2022-08-14T10:49:17;2.75;;;2.65;;
11893;SDS011;6006;49.696;8.662;2022-08-14T10:51:56;2.67;;;2.47;;
11893;SDS011;6006;49.696;8.662;2022-08-14T10:54:37;2.70;;;2.50;;
11893;SDS011;6006;49.696;8.662;2022-08-14T10:57:12;3.03;;;2.83;;
11893;SDS011;6006;49.696;8.662;2022-08-14T10:59:43;3.00;;;2.90;;
11893;SDS011;6006;49.696;8.662;2022-08-14T11:02:27;2.90;;;2.70;;
11893;SDS011;6006;49.696;8.662;2022-08-14T11:04:59;2.50;;;2.40;;
11893;SDS011;6006;49.696;8.662;2022-08-14T11:07:28;2.67;;;2.58;;
11893;SDS011;6006;49.696;8.662;2022-08-14T11:09:57;2.47;;;2.38;;
11893;SDS011;6006;49.696;8.662;2022-08-14T11:12:25;2.55;;;2.35;;
11893;SDS011;6006;49.696;8.662;2022-08-14T11:15:04;2.63;;;2.53;;
11893;SDS011;6006;49.696;8.662;2022-08-14T11:17:33;2.83;;;2.72;;
11893;SDS011;6006;49.696;8.662;2022-08-14T11:20:01;2.75;;;2.53;;
11893;SDS011;6006;49.696;8.662;2022-08-14T11:22:31;3.90;;;2.60;;
11893;SDS011;6006;49.696;8.662;2022-08-14T11:25:00;3.38;;;3.08;;
11893;SDS011;6006;49.696;8.662;2022-08-14T11:27:30;3.50;;;2.50;;
11893;SDS011;6006;49.696;8.662;2022-08-14T11:29:59;2.55;;;2.35;;
11893;SDS011;6006;49.696;8.662;2022-08-14T11:32:28;2.75;;;2.55;;
11893;SDS011;6006;49.696;8.662;2022-08-14T11:34:57;3.40;;;2.08;;
11893;SDS011;6006;49.696;8.662;2022-08-14T11:37:24;4.28;;;2.50;;
11893;SDS011;6006;49.696;8.662;2022-08-14T11:39:57;2.60;;;2.40;;
11893;SDS011;6006;49.696;8.662;2022-08-14T11:42:25;6.15;;;2.35;;
11893;SDS011;6006;49.696;8.662;2022-08-14T11:44:55;2.20;;;2.10;;
11893;SDS011;6006;49.696;8.662;2022-08-14T11:47:24;2.97;;;1.98;;
11893;SDS011;6006;49.696;8.662;2022-08-14T11:49:52;2.00;;;1.90;;
11893;SDS011;6006;49.696;8.662;2022-08-14T11:52:22;1.92;;;1.83;;
11893;SDS011;6006;49.696;8.662;2022-08-14T11:55:01;2.65;;;2.45;;
11893;SDS011;6006;49.696;8.662;2022-08-14T11:57:33;2.03;;;1.92;;
11893;SDS011;6006;49.696;8.662;2022-08-14T12:00:04;2.55;;;2.35;;
11893;SDS011;6006;49.696;8.662;2022-08-14T12:02:34;2.60;;;2.40;;
11893;SDS011;6006;49.696;8.662;2022-08-14T12:05:01;2.20;;;2.10;;
11893;SDS011;6006;49.696;8.662;2022-08-14T12:07:30;2.30;;;2.20;;
11893;SDS011;6006;49.696;8.662;2022-08-14T12:09:57;2.03;;;1.92;;
11893;SDS011;6006;49.696;8.662;2022-08-14T12:12:27;2.22;;;2.13;;
11893;SDS011;6006;49.696;8.662;2022-08-14T12:14:57;2.78;;;2.22;;
11893;SDS011;6006;49.696;8.662;2022-08-14T12:17:25;2.30;;;2.10;;
11893;SDS011;6006;49.696;8.662;2022-08-14T12:19:54;2.05;;;1.95;;
11893;SDS011;6006;49.696;8.662;2022-08-14T12:22:34;2.10;;;2.00;;
11893;SDS011;6006;49.696;8.662;2022-08-14T12:25:03;2.30;;;2.05;;
11893;SDS011;6006;49.696;8.662;2022-08-14T12:27:35;2.58;;;2.20;;
11893;SDS011;6006;49.696;8.662;2022-08-14T12:30:07;2.13;;;2.03;;
11893;SDS011;6006;49.696;8.662;2022-08-14T12:32:38;2.30;;;2.20;;
11893;SDS011;6006;49.696;8.662;2022-08-14T12:35:06;2.47;;;2.20;;
11893;SDS011;6006;49.696;8.662;2022-08-14T12:37:35;2.45;;;2.25;;
11893;SDS011;6006;49.696;8.662;2022-08-14T12:40:09;2.13;;;2.03;;
11893;SDS011;6006;49.696;8.662;2022-08-14T12:42:37;2.30;;;2.10;;
11893;SDS011;6006;49.696;8.662;2022-08-14T12:45:05;2.05;;;1.95;;
11893;SDS011;6006;49.696;8.662;2022-08-14T12:47:36;2.20;;;2.10;;
11893;SDS011;6006;49.696;8.662;2022-08-14T12:50:03;2.20;;;2.10;;
11893;SDS011;6006;49.696;8.662;2022-08-14T12:52:31;3.38;;;2.28;;
11893;SDS011;6006;49.696;8.662;2022-08-14T12:55:04;2.70;;;2.00;;
11893;SDS011;6006;49.696;8.662;2022-08-14T12:57:33;2.38;;;2.17;;
11893;SDS011;6006;49.696;8.662;2022-08-14T13:00:11;3.50;;;2.50;;
11893;SDS011;6006;49.696;8.662;2022-08-14T13:02:44;2.35;;;2.20;;
11893;SDS011;6006;49.696;8.662;2022-08-14T13:05:12;2.40;;;2.30;;
11893;SDS011;6006;49.696;8.662;2022-08-14T13:07:40;2.50;;;2.40;;
11893;SDS011;6006;49.696;8.662;2022-08-14T13:10:10;3.75;;;2.45;;
11893;SDS011;6006;49.696;8.662;2022-08-14T13:12:38;2.72;;;2.53;;
11893;SDS011;6006;49.696;8.662;2022-08-14T13:15:06;2.72;;;2.53;;
11893;SDS011;6006;49.696;8.662;2022-08-14T13:17:39;2.50;;;2.40;;
11893;SDS011;6006;49.696;8.662;2022-08-14T13:20:09;2.75;;;2.55;;
11893;SDS011;6006;49.696;8.662;2022-08-14T13:22:38;2.67;;;2.58;;
11893;SDS011;6006;49.696;8.662;2022-08-14T13:25:11;2.70;;;2.50;;
11893;SDS011;6006;49.696;8.662;2022-08-14T13:27:39;3.00;;;2.70;;
11893;SDS011;6006;49.696;8.662;2022-08-14T13:30:10;2.55;;;2.35;;
11893;SDS011;6006;49.696;8.662;2022-08-14T13:32:37;2.53;;;2.42;;
11893;SDS011;6006;49.696;8.662;2022-08-14T13:35:08;2.72;;;2.53;;
11893;SDS011;6006;49.696;8.662;2022-08-14T13:37:36;2.60;;;2.50;;
11893;SDS011;6006;49.696;8.662;2022-08-14T13:40:04;2.97;;;2.88;;
11893;SDS011;6006;49.696;8.662;2022-08-14T13:42:34;3.03;;;2.70;;
11893;SDS011;6006;49.696;8.662;2022-08-14T13:45:02;2.88;;;2.67;;
11893;SDS011;6006;49.696;8.662;2022-08-14T13:47:31;3.17;;;3.08;;
11893;SDS011;6006;49.696;8.662;2022-08-14T13:50:00;3.40;;;3.20;;
11893;SDS011;6006;49.696;8.662;2022-08-14T13:52:29;3.13;;;2.92;;
11893;SDS011;6006;49.696;8.662;2022-08-14T13:55:05;3.70;;;3.33;;
11893;SDS011;6006;49.696;8.662;2022-08-14T13:57:36;3.65;;;3.45;;
11893;SDS011;6006;49.696;8.662;2022-08-14T14:00:06;3.38;;;3.13;;
11893;SDS011;6006;49.696;8.662;2022-08-14T14:02:36;3.83;;;3.53;;
11893;SDS011;6006;49.696;8.662;2022-08-14T14:05:04;3.22;;;3.03;;
11893;SDS011;6006;49.696;8.662;2022-08-14T14:07:32;3.22;;;3.03;;
11893;SDS011;6006;49.696;8.662;2022-08-14T14:10:00;3.50;;;3.30;;
11893;SDS011;6006;49.696;8.662;2022-08-14T14:12:30;3.97;;;3.65;;
11893;SDS011;6006;49.696;8.662;2022-08-14T14:15:02;3.67;;;3.47;;
11893;SDS011;6006;49.696;8.662;2022-08-14T14:17:30;3.47;;;3.28;;
11893;SDS011;6006;49.696;8.662;2022-08-14T14:19:57;3.60;;;3.40;;
11893;SDS011;6006;49.696;8.662;2022-08-14T14:22:24;3.65;;;3.35;;
11893;SDS011;6006;49.696;8.662;2022-08-14T14:24:52;3.70;;;3.50;;
11893;SDS011;6006;49.696;8.662;2022-08-14T14:27:20;4.57;;;3.63;;
11893;SDS011;6006;49.696;8.662;2022-08-14T14:29:51;3.35;;;3.17;;
11893;SDS011;6006;49.696;8.662;2022-08-14T14:32:21;4.20;;;3.90;;
11893;SDS011;6006;49.696;8.662;2022-08-14T14:34:54;3.47;;;3.28;;
11893;SDS011;6006;49.696;8.662;2022-08-14T14:37:22;4.13;;;3.03;;
11893;SDS011;6006;49.696;8.662;2022-08-14T14:39:51;5.07;;;3.30;;
11893;SDS011;6006;49.696;8.662;2022-08-14T14:42:20;3.50;;;3.30;;
11893;SDS011;6006;49.696;8.662;2022-08-14T14:44:51;3.63;;;3.33;;
11893;SDS011;6006;49.696;8.662;2022-08-14T14:47:27;3.63;;;3.33;;
11893;SDS011;6006;49.696;8.662;2022-08-14T14:49:54;3.03;;;2.92;;
11893;SDS011;6006;49.696;8.662;2022-08-14T14:52:22;3.63;;;3.33;;
11893;SDS011;6006;49.696;8.662;2022-08-14T14:54:49;3.20;;;3.00;;
11893;SDS011;6006;49.696;8.662;2022-08-14T14:57:16;3.20;;;3.00;;
11893;SDS011;6006;49.696;8.662;2022-08-14T14:59:44;3.10;;;2.90;;
11893;SDS011;6006;49.696;8.662;2022-08-14T15:02:13;3.10;;;2.90;;
11893;SDS011;6006;49.696;8.662;2022-08-14T15:04:53;4.05;;;3.38;;
11893;SDS011;6006;49.696;8.662;2022-08-14T15:07:20;3.38;;;3.05;;
11893;SDS011;6006;49.696;8.662;2022-08-14T15:09:47;3.25;;;2.95;;
11893;SDS011;6006;49.696;8.662;2022-08-14T15:12:13;3.38;;;3.17;;
11893;SDS011;6006;49.696;8.662;2022-08-14T15:14:41;3.40;;;3.20;;